Time;durP1;ratioP1;P1;durP2;ratioP2;P2;SDS_P1;SDS_P2;PMS_P1;PMS_P2;Temp;Humidity;BMP_temperature;BMP_pressure;BME280_temperature;BME280_humidity;BME280_pressure;Samples;Min_cycle;Max_cycle;Signal;HPM_P1;HPM_P2
2023/07/14 06:10:13;;;;;;;13.20;3.00;;;20.70;99.90;;;;;;4878591;29;20083;-79
2023/07/14 06:12:40;;;;;;;5.85;2.70;;;20.80;99.90;;;;;;4874157;29;20049;-79
2023/07/14 06:15:07;;;;;;;9.25;3.10;;;20.80;99.90;;;;;;4893018;29;20492;-79
2023/07/14 06:17:34;;;;;;;4.78;3.20;;;20.80;99.90;;;;;;4891979;29;20052;-79
2023/07/14 06:20:01;;;;;;;5.97;2.67;;;20.80;99.90;;;;;;4899063;29;20100;-78
2023/07/14 06:22:28;;;;;;;4.90;2.88;;;20.80;99.90;;;;;;4897642;29;20434;-78
2023/07/14 06:24:55;;;;;;;8.05;3.08;;;20.80;99.90;;;;;;4898866;29;20053;-78
2023/07/14 06:27:23;;;;;;;9.77;2.70;;;20.80;99.90;;;;;;4900550;29;20131;-79
2023/07/14 06:29:49;;;;;;;10.85;3.17;;;20.80;99.90;;;;;;4901647;29;20091;-78
2023/07/14 06:32:16;;;;;;;5.88;2.78;;;20.80;99.90;;;;;;4901433;29;20053;-78
2023/07/14 06:34:43;;;;;;;7.20;2.92;;;20.80;99.90;;;;;;4900705;29;20067;-79
2023/07/14 06:37:10;;;;;;;6.88;3.05;;;20.80;99.90;;;;;;4911289;29;20049;-78
2023/07/14 06:39:37;;;;;;;6.05;2.60;;;20.80;99.90;;;;;;4899480;29;20515;-78
2023/07/14 06:42:05;;;;;;;4.63;2.88;;;20.80;99.90;;;;;;4900525;29;20504;-78
2023/07/14 06:44:31;;;;;;;7.57;3.03;;;20.80;99.90;;;;;;4903829;29;20049;-79
2023/07/14 06:46:58;;;;;;;3.58;3.00;;;20.90;99.90;;;;;;4919590;29;20052;-78
2023/07/14 06:49:26;;;;;;;6.88;2.70;;;20.90;99.90;;;;;;4901706;29;20045;-78
2023/07/14 06:51:55;;;;;;;7.30;2.88;;;21.00;99.90;;;;;;4904611;29;20055;-79
2023/07/14 06:54:22;;;;;;;7.25;2.83;;;21.10;99.90;;;;;;4902884;29;20711;-78
2023/07/14 06:56:48;;;;;;;6.07;2.92;;;21.10;99.90;;;;;;4903190;29;20068;-78
2023/07/14 06:59:15;;;;;;;5.78;3.13;;;21.20;99.90;;;;;;4916247;29;20056;-79
2023/07/14 07:01:42;;;;;;;6.28;2.70;;;21.20;99.90;;;;;;4897959;29;20048;-79
2023/07/14 07:04:09;;;;;;;5.75;2.90;;;21.30;99.90;;;;;;4900289;29;20041;-78
2023/07/14 07:06:35;;;;;;;8.60;3.30;;;21.40;99.90;;;;;;4901624;29;20041;-78
2023/07/14 07:09:02;;;;;;;8.55;3.28;;;21.50;99.90;;;;;;4902357;29;20105;-78
2023/07/14 07:11:32;;;;;;;;;;;21.50;99.90;;;;;;4915481;29;20075;-79
2023/07/14 07:13:59;;;;;;;8.48;2.88;;;21.50;99.90;;;;;;4902961;29;19928;-77
2023/07/14 07:16:26;;;;;;;4.32;2.03;;;21.60;99.90;;;;;;4901992;29;20489;-78
2023/07/14 07:18:53;;;;;;;2.78;2.10;;;21.60;99.90;;;;;;4897713;29;20393;-79
2023/07/14 07:21:20;;;;;;;5.45;2.53;;;21.70;99.90;;;;;;4897521;29;20083;-79
2023/07/14 07:23:46;;;;;;;7.32;2.55;;;21.70;99.90;;;;;;4902014;29;20044;-78
2023/07/14 07:26:13;;;;;;;4.50;2.47;;;21.80;99.90;;;;;;4899945;29;20650;-79
2023/07/14 07:28:40;;;;;;;4.60;2.00;;;21.80;99.90;;;;;;4915191;29;20100;-79
2023/07/14 07:31:10;;;;;;;5.85;2.80;;;21.80;99.90;;;;;;4897983;29;20052;-79
2023/07/14 07:33:38;;;;;;;5.40;2.55;;;21.80;99.90;;;;;;4916461;29;20111;-79
2023/07/14 07:36:14;;;;;;;7.07;2.28;;;21.80;99.90;;;;;;4900248;29;20469;-79
2023/07/14 07:38:52;;;;;;;6.85;2.10;;;21.80;99.90;;;;;;4937499;23;20076;-79
2023/07/14 07:41:22;;;;;;;9.98;2.33;;;21.90;99.90;;;;;;4923206;29;20052;-79
2023/07/14 07:43:49;;;;;;;5.63;2.58;;;22.00;99.90;;;;;;4925937;29;20059;-81
2023/07/14 07:46:16;;;;;;;6.30;1.90;;;22.10;99.90;;;;;;4918679;29;20080;-80
2023/07/14 07:48:44;;;;;;;5.85;2.40;;;22.10;99.90;;;;;;4921814;29;20061;-79
2023/07/14 07:51:12;;;;;;;6.53;2.78;;;22.20;99.90;;;;;;4906882;29;20057;-81
2023/07/14 07:53:39;;;;;;;7.50;2.60;;;22.20;99.90;;;;;;4907657;29;20132;-80
2023/07/14 07:56:06;;;;;;;5.25;2.40;;;22.30;99.90;;;;;;4920301;29;20048;-80
2023/07/14 07:58:33;;;;;;;6.03;2.72;;;22.40;99.90;;;;;;4902817;29;20067;-80
2023/07/14 08:01:03;;;;;;;8.75;2.78;;;22.40;99.90;;;;;;4898312;29;20052;-79
2023/07/14 08:03:31;;;;;;;6.63;2.50;;;22.50;99.90;;;;;;4898671;29;20044;-82
2023/07/14 08:06:00;;;;;;;6.88;2.58;;;22.60;99.90;;;;;;4890541;29;20081;-78
2023/07/14 08:08:27;;;;;;;6.80;2.60;;;22.70;99.90;;;;;;4894548;29;20049;-80
2023/07/14 08:10:55;;;;;;;7.30;3.13;;;22.80;99.90;;;;;;4895933;29;20063;-79
2023/07/14 08:13:24;;;;;;;7.35;3.28;;;22.80;99.90;;;;;;4889509;29;20488;-79
2023/07/14 08:15:53;;;;;;;5.65;2.92;;;22.90;99.90;;;;;;4890770;29;20053;-78
2023/07/14 08:18:21;;;;;;;12.57;3.90;;;23.00;99.90;;;;;;4890693;29;20123;-79
2023/07/14 08:20:49;;;;;;;13.10;4.00;;;23.10;99.90;;;;;;4886029;29;20104;-79
2023/07/14 08:23:17;;;;;;;11.65;4.32;;;23.20;99.90;;;;;;4892139;29;20051;-79
2023/07/14 08:25:43;;;;;;;19.95;5.82;;;23.20;99.90;;;;;;4895459;29;20048;-79
2023/07/14 08:28:10;;;;;;;17.63;6.93;;;23.30;99.90;;;;;;4893033;29;20491;-79
2023/07/14 08:30:37;;;;;;;16.73;6.07;;;23.30;99.90;;;;;;4889080;29;20052;-78
2023/07/14 08:33:04;;;;;;;21.30;6.00;;;23.40;99.90;;;;;;4878526;29;20049;-80
2023/07/14 08:35:31;;;;;;;20.38;6.88;;;23.40;99.90;;;;;;4891078;29;20061;-77
2023/07/14 08:37:58;;;;;;;17.55;5.57;;;23.40;99.90;;;;;;4888579;29;20049;-79
2023/07/14 08:40:29;;;;;;;17.80;7.05;;;23.50;99.90;;;;;;4899148;29;20081;-79
2023/07/14 08:43:21;;;;;;;24.65;7.72;;;23.50;99.90;;;;;;4893966;29;20053;-77
2023/07/14 08:45:57;;;;;;;21.00;6.93;;;23.50;99.90;;;;;;4886824;29;20109;-80
2023/07/14 08:48:27;;;;;;;22.95;7.60;;;23.60;99.90;;;;;;4894284;29;20052;-79
2023/07/14 08:50:57;;;;;;;19.10;8.05;;;23.60;99.90;;;;;;4884066;29;20053;-77
2023/07/14 08:53:28;;;;;;;;;;;23.60;99.90;;;;;;4888843;29;20052;-80
2023/07/14 08:56:04;;;;;;;21.20;6.80;;;23.60;99.90;;;;;;4892651;29;20003;-80
2023/07/14 08:58:36;;;;;;;20.25;6.38;;;23.60;99.90;;;;;;4888090;29;20048;-77
2023/07/14 09:01:26;;;;;;;16.20;4.60;;;23.70;99.90;;;;;;4889610;29;20148;-79
2023/07/14 09:03:58;;;;;;;13.73;4.53;;;23.70;99.90;;;;;;4890645;29;20045;-79
2023/07/14 09:06:33;;;;;;;10.82;3.92;;;23.80;99.90;;;;;;4901257;29;20048;-80
2023/07/14 09:09:00;;;;;;;12.90;3.30;;;23.80;99.90;;;;;;4896260;29;20060;-84
2023/07/14 09:11:45;;;;;;;9.70;3.20;;;23.80;99.90;;;;;;4899498;29;20045;-80
2023/07/14 09:14:31;;;;;;;11.63;2.40;;;23.80;99.90;;;;;;4897834;29;20048;-79
2023/07/14 09:17:05;;;;;;;9.18;3.45;;;23.80;99.90;;;;;;4901493;29;20048;-81
2023/07/14 09:20:00;;;;;;;11.65;2.80;;;23.70;99.90;;;;;;4902271;29;20052;-81
2023/07/14 09:22:37;;;;;;;6.78;2.60;;;23.70;99.90;;;;;;4900289;29;20041;-79
2023/07/14 09:25:29;;;;;;;5.63;2.30;;;23.70;99.90;;;;;;4914827;29;20084;-81
2023/07/14 09:27:56;;;;;;;9.85;2.63;;;23.70;99.90;;;;;;4899800;29;20049;-80
2023/07/14 09:30:27;;;;;;;6.70;1.83;;;23.70;99.90;;;;;;4903718;29;20056;-81
2023/07/14 09:33:01;;;;;;;5.35;2.25;;;23.70;99.90;;;;;;4913217;29;20113;-80
2023/07/14 09:35:29;;;;;;;6.90;1.80;;;23.70;99.90;;;;;;4898801;29;20048;-81
2023/07/14 09:37:58;;;;;;;5.90;1.90;;;23.80;99.90;;;;;;4902359;29;20080;-79
2023/07/14 09:40:30;;;;;;;2.80;1.77;;;23.90;99.90;;;;;;4900369;29;20078;-79
2023/07/14 09:42:59;;;;;;;5.10;2.10;;;23.90;99.90;;;;;;4898025;29;20056;-79
2023/07/14 09:45:35;;;;;;;7.20;1.83;;;23.80;99.90;;;;;;4896158;29;20048;-80
2023/07/14 09:48:13;;;;;;;4.60;2.28;;;23.80;99.90;;;;;;4899711;29;20117;-79
2023/07/14 09:50:52;;;;;;;5.25;2.13;;;23.80;99.90;;;;;;4902578;29;20077;-81
2023/07/14 09:53:19;;;;;;;7.15;1.73;;;23.80;99.90;;;;;;4900176;29;20135;-80
2023/07/14 09:55:56;;;;;;;5.50;1.77;;;23.80;99.90;;;;;;4904970;29;20084;-80
2023/07/14 09:58:27;;;;;;;7.65;2.20;;;23.80;99.90;;;;;;4899137;29;20045;-80
2023/07/14 10:00:59;;;;;;;5.32;1.58;;;23.80;99.90;;;;;;4908739;29;20053;-81
2023/07/14 10:03:34;;;;;;;7.95;2.03;;;23.80;99.90;;;;;;4903429;29;20044;-79
2023/07/14 10:06:26;;;;;;;3.63;1.60;;;23.80;99.90;;;;;;4903744;29;20053;-81
2023/07/14 10:08:55;;;;;;;3.42;1.65;;;23.90;99.90;;;;;;4896948;29;20048;-80
2023/07/14 10:11:37;;;;;;;5.78;2.08;;;23.90;99.90;;;;;;4904172;29;20053;-81
2023/07/14 10:14:27;;;;;;;3.78;2.17;;;24.10;99.90;;;;;;4896725;29;20064;-81
2023/07/14 10:16:57;;;;;;;6.55;2.05;;;24.20;99.90;;;;;;4901625;29;20128;-81
2023/07/14 10:19:41;;;;;;;4.00;1.85;;;24.30;99.90;;;;;;4902627;29;20496;-81
2023/07/14 10:22:14;;;;;;;4.30;1.80;;;24.40;99.90;;;;;;4903037;29;20445;-82
2023/07/14 10:24:54;;;;;;;5.97;2.13;;;24.50;99.90;;;;;;4900725;29;20045;-81
2023/07/14 10:27:26;;;;;;;5.30;1.98;;;24.60;99.90;;;;;;4902158;29;20048;-82
2023/07/14 10:30:05;;;;;;;7.70;2.08;;;24.70;99.90;;;;;;4908445;29;20081;-81
2023/07/14 10:32:42;;;;;;;3.63;1.80;;;24.80;99.90;;;;;;4904284;29;20048;-82
2023/07/14 10:35:22;;;;;;;5.95;1.95;;;24.90;99.90;;;;;;4904790;29;20057;-81
2023/07/14 10:38:07;;;;;;;;;;;25.10;99.90;;;;;;4896694;29;20049;-81
2023/07/14 10:40:38;;;;;;;5.88;1.77;;;25.30;99.90;;;;;;4901848;29;19923;-81
2023/07/14 10:43:17;;;;;;;8.15;1.92;;;25.30;99.90;;;;;;4904080;29;20052;-80
2023/07/14 10:45:49;;;;;;;10.57;2.20;;;25.40;99.90;;;;;;4901102;29;20116;-80
2023/07/14 10:48:30;;;;;;;9.82;1.98;;;25.40;99.90;;;;;;4906714;29;20052;-80
2023/07/14 10:51:10;;;;;;;4.88;1.73;;;25.50;99.90;;;;;;4901059;29;20049;-80
2023/07/14 10:53:46;;;;;;;2.85;1.55;;;25.60;99.90;;;;;;4905564;29;20064;-80
2023/07/14 10:56:23;;;;;;;4.85;1.80;;;25.60;99.90;;;;;;4901632;29;20135;-80
2023/07/14 10:58:58;;;;;;;6.43;2.03;;;25.70;99.90;;;;;;4911657;29;20072;-80
2023/07/14 11:01:38;;;;;;;5.90;1.50;;;25.80;99.90;;;;;;4906328;29;20044;-80
2023/07/14 11:04:22;;;;;;;3.53;2.00;;;25.90;99.90;;;;;;4899750;29;20120;-80
2023/07/14 11:06:52;;;;;;;7.38;1.80;;;25.90;99.90;;;;;;4903595;29;20045;-81
2023/07/14 11:09:22;;;;;;;5.00;1.90;;;26.00;99.90;;;;;;4900363;29;20075;-80
2023/07/14 11:11:55;;;;;;;4.90;2.00;;;26.10;99.90;;;;;;4901254;29;20073;-81
2023/07/14 11:14:43;;;;;;;3.63;1.58;;;26.20;99.90;;;;;;4898820;29;20077;-81
2023/07/14 11:17:34;;;;;;;4.85;1.70;;;26.30;99.90;;;;;;4900780;29;20143;-80
2023/07/14 11:20:12;;;;;;;9.77;2.10;;;26.40;99.90;;;;;;4902302;29;20423;-81
2023/07/14 11:23:15;;;;;;;5.63;2.40;;;26.50;99.90;;;;;;4899528;29;20045;-81
2023/07/14 11:26:24;;;;;;;4.30;1.45;;;26.50;99.90;;;;;;4896556;29;20053;-80
2023/07/14 11:29:16;;;;;;;4.78;1.73;;;26.50;99.90;;;;;;4897724;29;20477;-80
2023/07/14 11:32:02;;;;;;;4.32;1.48;;;26.60;99.90;;;;;;4897591;29;20097;-80
2023/07/14 11:34:47;;;;;;;4.07;1.63;;;26.60;99.90;;;;;;4901641;29;20106;-80
2023/07/14 11:37:56;;;;;;;2.25;1.40;;;26.70;99.90;;;;;;4905992;29;20052;-80
2023/07/14 11:40:25;;;;;;;5.43;1.80;;;26.70;99.90;;;;;;4889973;29;20053;-80
2023/07/14 11:42:57;;;;;;;4.97;1.88;;;26.70;99.90;;;;;;4900737;29;20052;-80
2023/07/14 11:45:28;;;;;;;5.75;1.70;;;26.80;99.90;;;;;;4893929;29;20057;-80
2023/07/14 11:47:57;;;;;;;4.05;1.58;;;26.80;99.90;;;;;;4891432;29;20052;-80
2023/07/14 11:50:28;;;;;;;4.72;1.63;;;26.80;99.90;;;;;;4897442;29;20048;-80
2023/07/14 11:53:07;;;;;;;4.32;1.70;;;26.80;99.90;;;;;;4890114;29;20136;-80
2023/07/14 11:55:37;;;;;;;4.25;1.67;;;26.80;99.90;;;;;;4892190;29;20073;-79
2023/07/14 11:58:17;;;;;;;2.65;2.05;;;26.80;99.90;;;;;;4894616;29;20064;-80
2023/07/14 12:00:47;;;;;;;8.18;1.98;;;26.90;99.90;;;;;;4910646;29;20076;-81
2023/07/14 12:03:37;;;;;;;4.80;1.95;;;26.90;99.90;;;;;;4908223;29;20048;-80
2023/07/14 12:06:19;;;;;;;4.65;1.60;;;26.90;99.90;;;;;;4901482;29;20059;-80
2023/07/14 12:09:14;;;;;;;4.32;1.60;;;26.90;99.90;;;;;;4894984;29;20060;-81
2023/07/14 12:11:40;;;;;;;4.78;1.60;;;27.00;99.90;;;;;;4897537;29;20053;-80
2023/07/14 12:14:34;;;;;;;5.97;1.90;;;27.00;99.90;;;;;;4895967;29;20424;-80
2023/07/14 12:17:03;;;;;;;3.03;1.60;;;27.10;99.90;;;;;;4916235;29;20085;-80
2023/07/14 12:19:54;;;;;;;5.30;1.50;;;27.10;99.90;;;;;;4897218;29;20412;-80
2023/07/14 12:22:46;;;;;;;6.25;1.63;;;27.10;99.90;;;;;;4894004;29;20049;-81
2023/07/14 12:25:16;;;;;;;5.30;2.10;;;27.20;99.90;;;;;;4894102;29;20049;-81
2023/07/14 12:27:49;;;;;;;8.32;2.03;;;27.30;99.90;;;;;;4899171;29;20051;-80
2023/07/14 12:30:26;;;;;;;2.60;1.60;;;27.30;99.90;;;;;;4896913;29;20397;-83
2023/07/14 12:32:59;;;;;;;4.75;2.10;;;27.40;99.90;;;;;;4899453;29;20056;-78
2023/07/14 12:35:27;;;;;;;6.00;1.67;;;27.40;99.90;;;;;;4895129;29;20072;-78
2023/07/14 12:37:53;;;;;;;9.27;2.70;;;27.40;99.90;;;;;;4908118;29;20048;-80
2023/07/14 12:40:23;;;;;;;6.35;1.90;;;27.40;99.90;;;;;;4898291;29;20037;-81
2023/07/14 12:42:51;;;;;;;7.80;1.83;;;27.40;99.90;;;;;;4900310;29;20045;-81
2023/07/14 12:45:20;;;;;;;7.30;1.80;;;27.30;99.90;;;;;;4904594;29;20077;-81
2023/07/14 12:47:49;;;;;;;4.65;1.90;;;27.20;99.90;;;;;;4900716;29;20079;-80
2023/07/14 12:50:20;;;;;;;4.47;2.05;;;27.20;99.90;;;;;;4897638;29;20064;-81
2023/07/14 12:52:48;;;;;;;2.58;1.60;;;27.10;99.90;;;;;;4912520;29;20049;-80
2023/07/14 12:55:23;;;;;;;5.13;1.75;;;27.10;99.90;;;;;;4893192;29;20067;-81
2023/07/14 12:57:51;;;;;;;3.85;2.00;;;27.10;99.90;;;;;;4900139;29;20044;-81
2023/07/14 13:00:24;;;;;;;9.98;3.53;;;27.10;99.90;;;;;;4900550;29;20389;-81
2023/07/14 13:02:52;;;;;;;6.00;1.70;;;27.00;99.90;;;;;;4897076;29;20067;-80
2023/07/14 13:05:34;;;;;;;7.55;2.40;;;27.00;99.90;;;;;;4898212;29;20053;-80
2023/07/14 13:08:04;;;;;;;5.15;2.03;;;26.90;99.90;;;;;;4890451;29;20509;-80
2023/07/14 13:10:41;;;;;;;5.75;1.65;;;26.80;99.90;;;;;;4894186;29;20472;-80
2023/07/14 13:13:14;;;;;;;5.68;1.90;;;26.70;99.90;;;;;;4898967;29;20052;-79
2023/07/14 13:15:42;;;;;;;13.82;2.35;;;26.70;99.90;;;;;;4901451;29;20100;-80
2023/07/14 13:18:18;;;;;;;3.55;1.63;;;26.70;99.90;;;;;;4904488;29;20108;-81
2023/07/14 13:20:45;;;;;;;8.10;2.08;;;26.60;99.90;;;;;;4922013;29;20083;-80
2023/07/14 13:23:18;;;;;;;3.28;1.52;;;26.60;99.90;;;;;;4891822;29;20049;-79
2023/07/14 13:26:03;;;;;;;7.07;1.83;;;26.60;99.90;;;;;;4894720;29;20053;-81
2023/07/14 13:28:40;;;;;;;5.63;1.55;;;26.60;99.90;;;;;;4900442;29;20048;-80
2023/07/14 13:31:20;;;;;;;5.82;1.90;;;26.60;99.90;;;;;;4898596;29;20053;-81
2023/07/14 13:33:48;;;;;;;5.90;1.70;;;26.60;99.90;;;;;;4896582;29;20084;-81
2023/07/14 13:36:22;;;;;;;3.22;1.80;;;26.60;99.90;;;;;;4895529;29;20076;-80
2023/07/14 13:38:50;;;;;;;6.78;2.10;;;26.60;99.90;;;;;;4890882;29;20108;-80
2023/07/14 13:41:27;;;;;;;7.97;2.22;;;26.60;99.90;;;;;;4912398;29;20052;-80
2023/07/14 13:44:31;;;;;;;8.02;2.10;;;26.60;99.90;;;;;;4900507;29;20073;-80
2023/07/14 13:47:21;;;;;;;3.17;1.55;;;26.60;99.90;;;;;;4892817;29;20049;-81
2023/07/14 13:49:49;;;;;;;4.32;1.80;;;26.60;99.90;;;;;;4897618;29;20480;-81
2023/07/14 13:52:32;;;;;;;5.47;2.03;;;26.60;99.90;;;;;;4895155;29;20053;-81
2023/07/14 13:55:11;;;;;;;5.25;1.50;;;26.70;99.90;;;;;;4907633;29;20631;-81
2023/07/14 13:57:38;;;;;;;5.30;1.85;;;26.70;99.90;;;;;;4913605;29;20472;-81
2023/07/14 14:00:09;;;;;;;5.97;1.45;;;26.70;99.90;;;;;;4906638;29;20145;-81
2023/07/14 14:02:44;;;;;;;4.40;1.83;;;26.70;99.90;;;;;;4890743;29;20045;-81
2023/07/14 14:05:14;;;;;;;2.88;1.40;;;26.70;99.90;;;;;;4897331;29;20049;-81
2023/07/14 14:07:41;;;;;;;3.97;1.95;;;26.80;99.90;;;;;;4894122;29;21908;-81
2023/07/14 14:10:19;;;;;;;5.32;1.50;;;26.70;99.90;;;;;;4904303;29;20069;-82
2023/07/14 14:12:46;;;;;;;7.72;2.17;;;26.80;99.90;;;;;;4900650;29;20045;-80
2023/07/14 14:15:19;;;;;;;4.13;1.80;;;26.80;99.90;;;;;;4903233;29;20056;-82
2023/07/14 14:17:50;;;;;;;8.73;1.73;;;26.80;99.90;;;;;;4909942;29;20056;-82
2023/07/14 14:20:21;;;;;;;3.17;1.95;;;26.80;99.90;;;;;;4899672;29;20044;-81
2023/07/14 14:22:48;;;;;;;6.40;1.83;;;26.80;99.90;;;;;;4900302;29;20045;-82
2023/07/14 14:25:24;;;;;;;3.83;1.95;;;26.80;99.90;;;;;;4902603;29;20060;-81
2023/07/14 14:27:52;;;;;;;2.78;1.50;;;26.70;99.90;;;;;;4899703;29;20074;-82
2023/07/14 14:30:21;;;;;;;5.40;1.80;;;26.70;99.90;;;;;;4902481;29;20060;-82
2023/07/14 14:32:48;;;;;;;4.10;2.03;;;26.70;99.90;;;;;;4894037;29;20048;-81
2023/07/14 14:35:30;;;;;;;2.40;1.48;;;26.70;99.90;;;;;;4912761;29;20053;-81
2023/07/14 14:37:58;;;;;;;3.83;1.90;;;26.70;99.90;;;;;;4898109;29;20413;-81
2023/07/14 14:40:28;;;;;;;3.00;1.58;;;26.70;99.90;;;;;;4916055;29;20060;-82
2023/07/14 14:43:05;;;;;;;5.07;2.10;;;26.70;99.90;;;;;;4900547;29;20049;-82
2023/07/14 14:45:32;;;;;;;10.45;1.83;;;26.70;99.90;;;;;;4898519;29;20040;-80
2023/07/14 14:47:59;;;;;;;2.78;1.58;;;26.70;99.90;;;;;;4895425;29;20073;-81
2023/07/14 14:50:25;;;;;;;3.97;1.88;;;26.70;99.90;;;;;;4903856;29;20053;-80
2023/07/14 14:52:52;;;;;;;9.73;1.90;;;26.70;99.90;;;;;;4894761;29;20049;-81
2023/07/14 14:55:21;;;;;;;5.53;2.20;;;26.70;99.90;;;;;;4894594;29;20104;-79
2023/07/14 14:57:52;;;;;;;2.90;1.60;;;26.80;99.90;;;;;;4899140;29;20152;-81
2023/07/14 15:00:23;;;;;;;5.47;2.05;;;26.80;99.90;;;;;;4912626;29;20105;-81
2023/07/14 15:02:51;;;;;;;5.82;2.17;;;26.80;99.90;;;;;;4892746;29;20105;-80
2023/07/14 15:05:21;;;;;;;4.00;1.58;;;26.90;99.90;;;;;;4902092;29;20109;-81
2023/07/14 15:07:52;;;;;;;7.32;1.88;;;26.90;99.90;;;;;;4901410;29;20076;-81
2023/07/14 15:10:22;;;;;;;5.35;1.92;;;27.00;99.90;;;;;;4919488;29;20497;-81
2023/07/14 15:12:49;;;;;;;5.85;1.80;;;27.00;99.90;;;;;;4902193;29;20065;-81
2023/07/14 15:15:28;;;;;;;2.65;1.42;;;27.10;99.90;;;;;;4911046;29;20057;-81
2023/07/14 15:17:56;;;;;;;7.47;2.15;;;27.10;99.90;;;;;;4895105;29;20049;-80
2023/07/14 15:20:23;;;;;;;3.45;1.45;;;27.10;99.90;;;;;;4902676;29;20052;-81
2023/07/14 15:22:51;;;;;;;4.53;1.65;;;27.10;99.90;;;;;;4898264;29;20101;-80
2023/07/14 15:25:18;;;;;;;9.55;2.15;;;27.10;99.90;;;;;;4898814;29;20055;-81
2023/07/14 15:27:47;;;;;;;53.03;14.90;;;27.10;99.90;;;;;;4897922;29;20077;-81
2023/07/14 15:30:32;;;;;;;96.50;28.92;;;27.10;99.90;;;;;;4901579;29;20057;-81
2023/07/14 15:33:02;;;;;;;5.40;1.83;;;27.10;99.90;;;;;;4896639;29;20073;-81
2023/07/14 15:35:32;;;;;;;9.48;2.40;;;27.10;99.90;;;;;;4900444;29;20049;-82
2023/07/14 15:38:19;;;;;;;;;;;27.10;99.90;;;;;;4902328;29;20087;-81
2023/07/14 15:40:51;;;;;;;42.08;10.50;;;27.10;99.90;;;;;;4906054;29;19924;-81
2023/07/14 15:43:22;;;;;;;13.85;4.15;;;27.10;99.90;;;;;;4902004;29;20041;-81
2023/07/14 15:45:53;;;;;;;4.75;1.85;;;27.10;99.90;;;;;;4904080;29;20473;-81
2023/07/14 15:48:32;;;;;;;4.38;1.77;;;27.00;99.90;;;;;;4894137;29;20077;-81
2023/07/14 15:51:18;;;;;;;8.88;3.40;;;27.10;99.90;;;;;;4901323;29;20052;-81
2023/07/14 15:53:46;;;;;;;5.88;2.15;;;27.10;99.90;;;;;;4906568;29;20081;-81
2023/07/14 15:56:18;;;;;;;6.97;1.83;;;27.10;99.90;;;;;;4897120;29;20081;-81
2023/07/14 15:58:46;;;;;;;9.23;1.95;;;27.10;99.90;;;;;;4903120;29;20091;-81
2023/07/14 16:01:15;;;;;;;5.90;1.60;;;27.10;99.90;;;;;;4913508;29;20425;-79
2023/07/14 16:03:44;;;;;;;5.40;1.63;;;27.10;99.90;;;;;;4913102;29;20053;-80
2023/07/14 16:06:14;;;;;;;5.63;2.40;;;27.10;99.90;;;;;;4901361;29;20410;-80
2023/07/14 16:08:43;;;;;;;6.55;1.90;;;27.10;99.90;;;;;;4905110;29;20044;-81
2023/07/14 16:11:23;;;;;;;1.90;1.50;;;27.10;99.90;;;;;;4897064;29;20052;-81
2023/07/14 16:13:50;;;;;;;5.93;1.80;;;27.00;99.90;;;;;;4901284;29;20044;-81
2023/07/14 16:16:17;;;;;;;4.30;2.00;;;27.00;99.90;;;;;;4899432;29;20568;-81
2023/07/14 16:18:44;;;;;;;4.57;1.77;;;27.10;99.90;;;;;;4893911;29;20081;-81
2023/07/14 16:21:23;;;;;;;10.52;2.13;;;27.10;99.90;;;;;;4902557;29;20049;-82
2023/07/14 16:23:52;;;;;;;3.22;1.58;;;27.10;99.90;;;;;;4905256;29;20077;-81
2023/07/14 16:26:20;;;;;;;6.18;1.83;;;27.10;99.90;;;;;;4894598;29;20520;-81
2023/07/14 16:28:47;;;;;;;3.90;2.45;;;27.10;99.90;;;;;;4912601;29;20044;-81
2023/07/14 16:31:15;;;;;;;8.40;1.98;;;27.20;99.90;;;;;;4902703;29;20057;-81
2023/07/14 16:33:43;;;;;;;4.97;1.65;;;27.20;99.90;;;;;;4891612;29;20539;-81
2023/07/14 16:36:23;;;;;;;5.60;1.67;;;27.20;99.90;;;;;;4899625;29;20056;-81
2023/07/14 16:38:51;;;;;;;3.60;1.77;;;27.30;99.90;;;;;;4898472;29;20048;-81
2023/07/14 16:41:18;;;;;;;9.63;1.42;;;27.30;99.90;;;;;;4896055;29;20074;-79
2023/07/14 16:43:45;;;;;;;9.13;1.73;;;27.40;99.90;;;;;;4894441;29;20045;-80
2023/07/14 16:46:12;;;;;;;4.95;1.90;;;27.40;99.90;;;;;;4899981;29;20284;-80
2023/07/14 16:48:40;;;;;;;6.72;1.75;;;27.50;99.90;;;;;;4895019;29;20090;-80
2023/07/14 16:51:13;;;;;;;7.93;3.20;;;27.60;99.90;;;;;;4901829;29;20052;-80
2023/07/14 16:53:40;;;;;;;2.45;1.75;;;27.60;99.90;;;;;;4900937;29;20049;-80
2023/07/14 16:56:11;;;;;;;5.63;1.60;;;27.70;99.90;;;;;;4891309;29;20057;-81
2023/07/14 16:58:39;;;;;;;5.38;2.13;;;27.70;99.90;;;;;;4905200;29;20059;-80
2023/07/14 17:01:15;;;;;;;3.47;1.52;;;27.60;99.90;;;;;;4905021;29;20055;-79
2023/07/14 17:03:42;;;;;;;4.40;1.60;;;27.60;99.90;;;;;;4895941;29;20049;-79
2023/07/14 17:06:10;;;;;;;4.30;1.67;;;27.60;99.90;;;;;;4898088;29;20066;-79
2023/07/14 17:08:41;;;;;;;2.70;1.80;;;27.70;99.90;;;;;;4898937;29;20127;-81
2023/07/14 17:11:09;;;;;;;;;;;27.70;99.90;;;;;;4888843;29;20301;-81
2023/07/14 17:13:42;;;;;;;6.75;1.92;;;27.70;99.90;;;;;;4893407;29;19931;-81
2023/07/14 17:16:09;;;;;;;4.30;1.52;;;27.70;99.90;;;;;;4898460;29;20053;-80
2023/07/14 17:18:36;;;;;;;5.88;1.50;;;27.70;99.90;;;;;;4897361;29;20061;-81
2023/07/14 17:21:08;;;;;;;3.85;1.52;;;27.70;99.90;;;;;;4891166;29;20076;-81
2023/07/14 17:23:37;;;;;;;3.78;1.83;;;27.80;99.90;;;;;;4897668;29;20049;-81
2023/07/14 17:26:05;;;;;;;4.18;1.90;;;27.80;99.90;;;;;;4888267;29;20060;-80
2023/07/14 17:28:33;;;;;;;9.43;1.65;;;27.80;99.90;;;;;;4892001;29;20049;-81
2023/07/14 17:31:00;;;;;;;5.90;1.77;;;27.80;99.90;;;;;;4897719;29;20112;-81
2023/07/14 17:33:28;;;;;;;6.07;1.42;;;27.80;99.90;;;;;;4901459;29;20068;-81
2023/07/14 17:36:01;;;;;;;5.13;1.75;;;27.80;99.90;;;;;;4895793;29;20077;-80
2023/07/14 17:38:31;;;;;;;5.40;1.75;;;27.80;99.90;;;;;;4903724;29;20057;-81
2023/07/14 17:40:58;;;;;;;;;;;27.80;99.90;;;;;;4897031;29;20112;-82
2023/07/14 17:43:25;;;;;;;8.73;1.95;;;27.70;99.90;;;;;;4893807;29;19971;-80
2023/07/14 17:45:52;;;;;;;3.72;2.10;;;27.70;99.90;;;;;;4893665;29;20064;-80
2023/07/14 17:48:19;;;;;;;8.50;2.15;;;27.60;99.90;;;;;;4912627;29;20049;-80
2023/07/14 17:50:51;;;;;;;5.38;1.88;;;27.60;99.90;;;;;;4892383;29;20053;-81
2023/07/14 17:53:23;;;;;;;6.32;1.70;;;27.50;99.90;;;;;;4894234;29;20072;-80
2023/07/14 17:55:51;;;;;;;7.57;1.80;;;27.50;99.90;;;;;;4891322;29;20074;-80
2023/07/14 17:58:20;;;;;;;5.07;1.90;;;27.40;99.90;;;;;;4888506;29;20053;-80
2023/07/14 18:00:48;;;;;;;3.77;2.00;;;27.30;99.90;;;;;;4894374;29;20049;-80
2023/07/14 18:03:28;;;;;;;9.60;1.98;;;27.30;99.90;;;;;;4894121;29;20064;-80
2023/07/14 18:05:57;;;;;;;6.43;2.25;;;27.30;99.90;;;;;;4892098;29;20570;-80
2023/07/14 18:08:25;;;;;;;8.02;1.63;;;27.30;99.90;;;;;;4893266;29;20073;-80
2023/07/14 18:10:55;;;;;;;5.35;1.60;;;27.20;99.90;;;;;;4900626;29;20076;-80
2023/07/14 18:13:26;;;;;;;4.75;1.73;;;27.10;99.90;;;;;;4887870;29;20081;-80
2023/07/14 18:15:54;;;;;;;8.25;1.83;;;27.10;99.90;;;;;;4892708;29;20056;-80
2023/07/14 18:18:24;;;;;;;5.65;1.90;;;27.10;99.90;;;;;;4898795;29;20077;-79
2023/07/14 18:20:55;;;;;;;5.20;2.05;;;27.10;99.90;;;;;;4890464;29;20057;-80
2023/07/14 18:23:25;;;;;;;4.65;2.00;;;27.00;99.90;;;;;;4897600;29;20041;-81
2023/07/14 18:25:53;;;;;;;4.72;1.98;;;26.90;99.90;;;;;;4895064;29;20559;-80
2023/07/14 18:28:25;;;;;;;9.68;2.55;;;26.80;99.90;;;;;;4886511;29;20053;-81
2023/07/14 18:30:53;;;;;;;6.43;2.25;;;26.80;99.90;;;;;;4892861;29;20107;-79
2023/07/14 18:33:26;;;;;;;4.18;2.05;;;26.70;99.90;;;;;;4897159;29;20069;-79
2023/07/14 18:35:56;;;;;;;4.07;1.90;;;26.60;99.90;;;;;;4900436;29;20053;-80
2023/07/14 18:38:25;;;;;;;10.02;2.22;;;26.60;99.90;;;;;;4893439;29;20063;-79
2023/07/14 18:40:55;;;;;;;4.50;2.03;;;26.50;99.90;;;;;;4893786;29;20052;-79
2023/07/14 18:43:34;;;;;;;3.90;2.00;;;26.40;99.90;;;;;;4905454;29;20402;-80
2023/07/14 18:46:03;;;;;;;3.60;1.73;;;26.40;99.90;;;;;;4899251;29;20134;-81
2023/07/14 18:48:31;;;;;;;5.78;2.38;;;26.30;99.90;;;;;;4901738;29;20049;-81
2023/07/14 18:51:13;;;;;;;9.57;2.30;;;26.20;99.90;;;;;;4888573;29;20057;-79
2023/07/14 18:53:40;;;;;;;5.18;2.00;;;26.20;99.90;;;;;;4901423;29;20044;-80
2023/07/14 18:56:08;;;;;;;3.60;2.17;;;26.10;99.90;;;;;;4887663;29;20057;-79
2023/07/14 18:58:36;;;;;;;5.80;2.78;;;26.00;99.90;;;;;;4890711;29;20131;-78
2023/07/14 19:01:04;;;;;;;7.68;2.50;;;25.90;99.90;;;;;;4902875;29;20123;-80
2023/07/14 19:03:38;;;;;;;5.63;2.40;;;25.90;99.90;;;;;;4915271;29;20049;-80
2023/07/14 19:06:11;;;;;;;9.10;2.42;;;25.80;99.90;;;;;;4890073;29;20053;-80
2023/07/14 19:08:38;;;;;;;5.72;2.80;;;25.80;99.90;;;;;;4902397;29;20086;-80
2023/07/14 19:11:13;;;;;;;5.25;2.10;;;25.60;99.90;;;;;;4890942;29;20052;-80
2023/07/14 19:13:40;;;;;;;3.75;2.08;;;25.60;99.90;;;;;;4901947;29;20070;-79
2023/07/14 19:16:26;;;;;;;6.78;1.92;;;25.50;99.90;;;;;;4909309;29;20053;-79
2023/07/14 19:18:54;;;;;;;8.45;2.28;;;25.50;99.90;;;;;;4889500;29;20057;-79
2023/07/14 19:21:26;;;;;;;6.72;2.22;;;25.40;99.90;;;;;;4900961;29;20044;-79
2023/07/14 19:23:55;;;;;;;6.43;2.13;;;25.30;99.90;;;;;;4894331;29;20092;-79